Time;durP1;ratioP1;P1;durP2;ratioP2;P2;SDS_P1;SDS_P2;PMS_P1;PMS_P2;Temp;Humidity;BMP_temperature;BMP_pressure;BME280_temperature;BME280_humidity;BME280_pressure;Samples;Min_cycle;Max_cycle;Signal;HPM_P1;HPM_P2
2022/03/31 00:00:44;;;;;;;31.48;24.80;;;12.50;75.80;;;;;;5048185;28;20025;-72
2022/03/31 00:03:15;;;;;;;38.55;25.60;;;12.50;76.10;;;;;;5055670;28;20025;-70
2022/03/31 00:05:41;;;;;;;37.05;24.67;;;12.40;76.70;;;;;;5055237;28;20037;-70
2022/03/31 00:08:10;;;;;;;37.13;26.65;;;12.40;76.90;;;;;;5055144;28;20505;-71
2022/03/31 00:10:38;;;;;;;37.05;25.90;;;12.40;77.30;;;;;;5052380;28;20033;-72
2022/03/31 00:13:13;;;;;;;38.13;26.35;;;12.30;77.50;;;;;;5055120;28;20104;-72
2022/03/31 00:15:39;;;;;;;38.70;25.73;;;12.40;77.80;;;;;;5048100;28;20033;-72
2022/03/31 00:18:06;;;;;;;34.10;24.98;;;12.30;77.90;;;;;;5055371;28;20048;-72
2022/03/31 00:20:32;;;;;;;38.75;26.33;;;12.30;78.10;;;;;;5054569;28;20047;-71
2022/03/31 00:22:58;;;;;;;37.97;27.25;;;12.30;78.30;;;;;;5055256;28;20025;-71
2022/03/31 00:25:24;;;;;;;38.25;27.52;;;12.30;78.60;;;;;;5054476;28;20112;-71
2022/03/31 00:27:50;;;;;;;40.53;26.10;;;12.30;78.70;;;;;;5055287;28;20021;-70
2022/03/31 00:30:16;;;;;;;39.35;26.15;;;12.30;78.90;;;;;;5054486;28;20036;-71
2022/03/31 00:32:42;;;;;;;41.05;26.92;;;12.30;79.20;;;;;;5055238;28;20366;-70
2022/03/31 00:35:12;;;;;;;38.17;26.48;;;12.30;79.20;;;;;;5055092;28;20048;-70
2022/03/31 00:37:40;;;;;;;37.78;27.50;;;12.30;79.40;;;;;;5054514;28;20057;-71
2022/03/31 00:40:06;;;;;;;39.35;26.92;;;12.20;79.30;;;;;;5055024;28;20017;-71
2022/03/31 00:42:37;;;;;;;37.13;26.45;;;12.20;79.60;;;;;;5054149;28;20029;-70
2022/03/31 00:45:23;;;;;;;41.28;27.15;;;12.30;79.70;;;;;;5054888;28;20492;-71
2022/03/31 00:47:49;;;;;;;39.97;27.98;;;12.30;80.30;;;;;;5054823;28;20505;-72
2022/03/31 00:50:16;;;;;;;39.85;26.85;;;12.30;79.70;;;;;;5054651;28;20059;-78
2022/03/31 00:52:42;;;;;;;39.15;27.65;;;12.30;80.00;;;;;;5054389;28;20108;-71
2022/03/31 00:55:10;;;;;;;37.83;27.45;;;12.30;79.90;;;;;;5054592;28;20049;-72
2022/03/31 00:57:37;;;;;;;40.20;27.40;;;12.30;80.00;;;;;;5054259;28;20493;-72
2022/03/31 01:00:07;;;;;;;40.05;27.00;;;12.20;80.00;;;;;;5054798;28;20048;-71
2022/03/31 01:02:35;;;;;;;41.20;27.27;;;12.20;80.40;;;;;;5053924;28;20401;-71
2022/03/31 01:05:01;;;;;;;38.00;26.58;;;12.20;80.60;;;;;;5039845;28;20033;-71
2022/03/31 01:07:27;;;;;;;39.05;28.08;;;12.20;80.70;;;;;;5053157;28;20024;-72
2022/03/31 01:09:58;;;;;;;38.28;27.85;;;12.20;81.00;;;;;;5052813;28;20025;-72
2022/03/31 01:12:24;;;;;;;40.00;27.95;;;12.20;81.20;;;;;;5050574;28;20021;-72
2022/03/31 01:15:26;;;;;;;41.85;28.83;;;12.20;81.20;;;;;;5053289;28;20495;-72
2022/03/31 01:17:51;;;;;;;39.15;27.80;;;12.20;81.30;;;;;;5011458;28;20497;-72
2022/03/31 01:20:20;;;;;;;40.90;27.77;;;12.20;81.50;;;;;;5044454;28;20140;-72
2022/03/31 01:22:47;;;;;;;41.53;26.33;;;12.20;81.20;;;;;;5054473;28;20028;-71
2022/03/31 01:25:13;;;;;;;36.75;26.98;;;12.20;81.30;;;;;;5054328;28;20033;-72
2022/03/31 01:27:43;;;;;;;38.10;27.25;;;12.20;81.40;;;;;;5053745;28;20029;-71
2022/03/31 01:30:13;;;;;;;35.20;25.63;;;12.20;81.40;;;;;;5054162;28;20060;-72
2022/03/31 01:32:39;;;;;;;42.60;28.60;;;12.20;81.50;;;;;;5051182;28;20029;-70
2022/03/31 01:35:07;;;;;;;39.63;26.25;;;12.20;81.60;;;;;;5054187;28;20033;-72
2022/03/31 01:37:33;;;;;;;43.15;27.20;;;12.20;81.60;;;;;;5053564;28;20025;-71
2022/03/31 01:39:59;;;;;;;39.45;28.38;;;12.20;81.60;;;;;;5054422;28;20574;-71
2022/03/31 01:42:26;;;;;;;38.45;28.50;;;12.20;81.60;;;;;;5053418;28;20025;-71
2022/03/31 01:44:52;;;;;;;39.03;27.83;;;12.20;81.90;;;;;;5052526;28;20431;-72
2022/03/31 01:47:18;;;;;;;42.88;28.73;;;12.20;82.00;;;;;;5054016;28;20037;-72
2022/03/31 01:49:44;;;;;;;37.30;27.13;;;12.20;82.00;;;;;;5052599;28;20032;-71
2022/03/31 01:52:10;;;;;;;39.55;27.65;;;12.20;82.10;;;;;;5053908;28;20025;-71
2022/03/31 01:54:36;;;;;;;39.08;27.55;;;12.20;82.10;;;;;;5053064;28;20028;-73
2022/03/31 01:57:02;;;;;;;44.58;27.67;;;12.20;81.90;;;;;;5053678;28;20037;-71
2022/03/31 01:59:40;;;;;;;39.83;28.25;;;12.20;81.90;;;;;;5053185;28;20025;-72
2022/03/31 02:02:07;;;;;;;40.47;28.10;;;12.20;81.70;;;;;;5053641;28;20039;-71
2022/03/31 02:04:32;;;;;;;43.65;28.58;;;12.30;81.70;;;;;;5052767;28;20025;-71
2022/03/31 02:06:59;;;;;;;37.45;27.40;;;12.30;81.50;;;;;;5053539;28;20043;-71
2022/03/31 02:09:25;;;;;;;42.55;29.55;;;12.30;81.40;;;;;;5052434;28;20028;-72
2022/03/31 02:11:52;;;;;;;37.65;27.77;;;12.40;81.20;;;;;;5053551;28;20029;-71
2022/03/31 02:14:19;;;;;;;35.78;26.20;;;12.40;80.70;;;;;;5053102;28;20390;-71
2022/03/31 02:16:45;;;;;;;38.67;28.42;;;12.40;81.00;;;;;;5053445;28;20124;-71
2022/03/31 02:19:11;;;;;;;42.80;29.42;;;12.30;80.70;;;;;;5053415;28;20059;-71
2022/03/31 02:21:37;;;;;;;42.35;28.70;;;12.40;81.00;;;;;;5051801;28;20082;-71
2022/03/31 02:24:03;;;;;;;41.65;28.77;;;12.40;80.90;;;;;;5053268;28;20025;-71
2022/03/31 02:26:29;;;;;;;39.67;28.95;;;12.40;80.80;;;;;;5052286;28;20098;-71
2022/03/31 02:28:54;;;;;;;39.38;28.13;;;12.40;81.20;;;;;;5051821;28;20428;-71
2022/03/31 02:31:20;;;;;;;43.17;29.35;;;12.40;81.10;;;;;;5053148;28;20020;-71
2022/03/31 02:33:46;;;;;;;41.45;28.25;;;12.40;81.10;;;;;;5052974;28;20050;-72
2022/03/31 02:36:11;;;;;;;41.45;28.65;;;12.40;81.00;;;;;;5052992;28;20147;-71
2022/03/31 02:38:37;;;;;;;45.08;29.83;;;12.40;81.00;;;;;;5050765;28;20199;-73
2022/03/31 02:41:03;;;;;;;43.00;29.85;;;12.40;80.90;;;;;;5052922;28;20021;-71
2022/03/31 02:43:29;;;;;;;46.47;30.92;;;12.40;80.80;;;;;;5052319;28;20427;-72
2022/03/31 02:45:54;;;;;;;40.42;29.20;;;12.40;80.40;;;;;;5052481;28;20394;-72
2022/03/31 02:48:20;;;;;;;41.33;31.15;;;12.40;80.50;;;;;;5052776;28;20390;-72
2022/03/31 02:50:45;;;;;;;47.30;31.10;;;12.40;81.50;;;;;;5052162;28;20021;-72
2022/03/31 02:55:55;;;;;;;47.20;31.67;;;12.40;80.70;;;;;;5052207;28;20136;-72
2022/03/31 02:58:21;;;;;;;48.13;31.20;;;12.40;80.90;;;;;;5052324;28;20053;-72
2022/03/31 03:00:48;;;;;;;42.88;31.95;;;12.40;81.70;;;;;;5051465;28;20128;-72
2022/03/31 03:03:14;;;;;;;42.97;31.73;;;12.30;81.30;;;;;;5052578;28;20040;-71
2022/03/31 03:05:42;;;;;;;43.80;31.83;;;12.30;81.50;;;;;;5051887;28;20112;-72
2022/03/31 03:08:08;;;;;;;47.85;31.38;;;12.30;82.10;;;;;;5052477;28;20102;-72
2022/03/31 03:10:34;;;;;;;43.03;31.67;;;12.30;82.60;;;;;;5051689;28;20449;-71
2022/03/31 03:13:00;;;;;;;45.17;32.15;;;12.20;83.00;;;;;;5052461;28;20101;-71
2022/03/31 03:15:26;;;;;;;40.47;30.45;;;12.20;83.40;;;;;;5051689;28;20078;-71
2022/03/31 03:17:51;;;;;;;46.03;31.67;;;12.10;84.00;;;;;;5052317;28;20021;-71
2022/03/31 03:20:17;;;;;;;45.88;32.25;;;12.10;84.10;;;;;;5052300;28;20037;-71
2022/03/31 03:22:45;;;;;;;44.50;31.90;;;12.10;84.70;;;;;;5051926;28;20424;-72
2022/03/31 03:25:12;;;;;;;44.70;32.45;;;12.00;85.00;;;;;;5052055;28;20037;-72
2022/03/31 03:27:39;;;;;;;46.60;32.22;;;12.00;85.40;;;;;;5051527;28;20032;-71
2022/03/31 03:30:07;;;;;;;44.13;31.52;;;12.00;85.70;;;;;;5052055;28;20036;-71
2022/03/31 03:32:34;;;;;;;46.65;32.97;;;11.90;86.20;;;;;;5051167;28;20120;-72
2022/03/31 03:35:00;;;;;;;49.90;33.67;;;11.90;86.70;;;;;;5051954;28;20043;-72
2022/03/31 03:37:26;;;;;;;47.85;33.88;;;11.80;87.30;;;;;;5051638;28;20022;-76
2022/03/31 03:39:51;;;;;;;46.97;33.40;;;11.70;87.50;;;;;;5052081;28;20060;-71
2022/03/31 03:42:17;;;;;;;49.45;34.58;;;11.70;88.10;;;;;;5051942;28;20057;-71
2022/03/31 03:44:43;;;;;;;49.80;34.28;;;11.70;88.60;;;;;;5051484;28;20059;-72
2022/03/31 03:47:08;;;;;;;46.88;33.97;;;11.70;88.90;;;;;;5051556;28;20031;-71
2022/03/31 03:49:34;;;;;;;49.88;34.20;;;11.60;89.30;;;;;;5050032;28;20116;-71
2022/03/31 03:52:00;;;;;;;52.30;35.63;;;11.60;89.50;;;;;;5051810;28;20100;-71
2022/03/31 03:54:27;;;;;;;47.58;34.10;;;11.60;89.90;;;;;;5051890;28;20087;-71
2022/03/31 03:56:52;;;;;;;54.70;35.90;;;11.60;90.00;;;;;;5052056;28;20071;-72
2022/03/31 03:59:18;;;;;;;49.25;34.20;;;11.60;90.10;;;;;;5051779;28;20025;-71
2022/03/31 04:01:44;;;;;;;52.38;35.40;;;11.60;90.30;;;;;;5051211;28;20059;-71
2022/03/31 04:04:10;;;;;;;49.30;35.38;;;11.50;90.50;;;;;;5051739;28;20057;-72
2022/03/31 04:06:37;;;;;;;49.97;34.63;;;11.60;90.70;;;;;;5051090;28;20048;-72
2022/03/31 04:09:03;;;;;;;53.53;37.42;;;11.50;90.90;;;;;;5051721;28;20079;-71
2022/03/31 04:11:29;;;;;;;47.80;35.20;;;11.50;90.90;;;;;;5050632;28;20029;-76
2022/03/31 04:13:54;;;;;;;51.42;35.80;;;11.50;91.10;;;;;;5051567;28;20150;-72
2022/03/31 04:16:20;;;;;;;55.33;37.67;;;11.50;91.20;;;;;;5051753;28;20048;-72
2022/03/31 04:18:45;;;;;;;53.70;36.95;;;11.50;91.30;;;;;;5051352;28;20028;-73
2022/03/31 04:21:11;;;;;;;56.83;35.60;;;11.50;91.30;;;;;;5051852;28;20021;-73
2022/03/31 04:23:37;;;;;;;58.15;39.10;;;11.40;91.50;;;;;;5051189;28;20032;-73
2022/03/31 04:26:03;;;;;;;54.63;37.10;;;11.40;91.50;;;;;;5051627;28;20033;-72
2022/03/31 04:28:29;;;;;;;60.53;39.00;;;11.40;91.70;;;;;;5051750;28;20087;-72
2022/03/31 04:30:55;;;;;;;55.58;37.70;;;11.40;91.70;;;;;;5051289;28;20482;-72
2022/03/31 04:33:20;;;;;;;52.05;37.55;;;11.40;91.70;;;;;;5051417;28;20429;-72
2022/03/31 04:35:46;;;;;;;60.05;38.60;;;11.30;91.50;;;;;;5050996;28;20033;-71
2022/03/31 04:38:12;;;;;;;54.00;37.70;;;11.30;91.70;;;;;;5051648;28;20037;-71
2022/03/31 04:40:37;;;;;;;57.65;38.05;;;11.30;91.90;;;;;;5050298;28;20032;-71
2022/03/31 04:43:03;;;;;;;56.35;38.58;;;11.20;92.10;;;;;;5051176;28;20029;-72
2022/03/31 04:45:29;;;;;;;55.67;39.28;;;11.20;92.20;;;;;;5050538;28;20115;-71
2022/03/31 04:47:54;;;;;;;60.38;38.78;;;11.20;92.00;;;;;;5053999;28;20505;-72
2022/03/31 04:50:20;;;;;;;52.75;38.42;;;11.20;92.30;;;;;;5054747;28;20056;-72
2022/03/31 04:52:46;;;;;;;59.80;39.75;;;11.20;92.40;;;;;;5054186;28;20487;-72
2022/03/31 04:55:11;;;;;;;59.05;39.33;;;11.20;92.60;;;;;;5054449;28;20048;-71
2022/03/31 04:57:37;;;;;;;63.25;41.10;;;11.20;92.60;;;;;;5053916;28;20094;-72
2022/03/31 05:00:05;;;;;;;64.40;41.42;;;11.20;92.80;;;;;;5054719;28;20029;-72
2022/03/31 05:02:31;;;;;;;61.38;40.22;;;11.10;92.70;;;;;;5054181;28;20072;-72
2022/03/31 05:04:56;;;;;;;60.10;41.38;;;11.20;93.00;;;;;;5053738;28;20056;-72
2022/03/31 05:10:07;;;;;;;61.38;40.65;;;11.10;93.00;;;;;;5054929;28;20446;-71
2022/03/31 05:12:32;;;;;;;64.80;42.03;;;11.20;93.30;;;;;;5054461;28;20386;-72
2022/03/31 05:14:58;;;;;;;67.75;43.17;;;11.20;93.30;;;;;;5054600;28;20021;-71
2022/03/31 05:17:25;;;;;;;64.88;40.75;;;11.20;93.10;;;;;;5054224;28;20399;-73
2022/03/31 05:19:50;;;;;;;70.72;45.95;;;11.20;93.20;;;;;;5054420;28;20025;-71
2022/03/31 05:22:16;;;;;;;69.82;46.85;;;11.20;93.10;;;;;;5056964;28;20027;-71
2022/03/31 05:24:42;;;;;;;72.55;47.22;;;11.20;92.70;;;;;;5061009;28;20482;-71
2022/03/31 05:27:07;;;;;;;67.97;45.33;;;11.10;92.50;;;;;;5065392;28;20045;-70
2022/03/31 05:29:34;;;;;;;69.63;46.72;;;11.10;92.50;;;;;;5074305;28;20035;-70
2022/03/31 05:32:00;;;;;;;74.97;46.72;;;11.10;92.40;;;;;;5074388;28;20016;-70
2022/03/31 05:34:25;;;;;;;69.72;46.67;;;11.10;92.50;;;;;;5073954;28;20124;-71
2022/03/31 05:36:51;;;;;;;66.55;46.22;;;11.10;92.70;;;;;;5073400;28;20029;-70
2022/03/31 05:39:17;;;;;;;65.53;47.35;;;11.10;92.70;;;;;;5073964;28;20027;-72
2022/03/31 05:41:42;;;;;;;71.90;48.08;;;11.00;92.60;;;;;;5073428;28;20028;-70
2022/03/31 05:44:08;;;;;;;74.78;48.47;;;11.00;92.80;;;;;;5073924;28;20028;-70
2022/03/31 05:46:52;;;;;;;73.03;47.85;;;11.00;92.80;;;;;;5073765;28;20043;-70
2022/03/31 05:49:18;;;;;;;74.47;48.88;;;11.00;93.00;;;;;;5073702;28;20025;-70
2022/03/31 05:51:43;;;;;;;74.18;50.25;;;11.00;92.90;;;;;;5073075;28;20446;-71
2022/03/31 05:54:10;;;;;;;73.72;48.60;;;11.00;92.80;;;;;;5062178;28;20029;-70
2022/03/31 05:56:36;;;;;;;69.65;48.08;;;11.00;92.90;;;;;;5053004;28;20140;-73
2022/03/31 05:59:03;;;;;;;72.35;48.78;;;11.00;92.80;;;;;;5053658;28;20116;-70
2022/03/31 06:01:29;;;;;;;71.65;49.65;;;11.00;92.80;;;;;;5053544;28;20025;-70
2022/03/31 06:03:55;;;;;;;75.85;48.50;;;10.90;92.90;;;;;;5052561;28;20032;-69
2022/03/31 06:06:21;;;;;;;72.47;48.47;;;10.90;93.10;;;;;;5053520;28;20045;-70
2022/03/31 06:08:47;;;;;;;71.13;48.10;;;10.90;93.20;;;;;;5052743;28;20476;-70
2022/03/31 06:11:13;;;;;;;76.53;47.83;;;10.90;93.30;;;;;;5053401;28;20429;-70
2022/03/31 06:13:38;;;;;;;71.93;46.25;;;10.90;93.20;;;;;;5052840;28;20029;-69
2022/03/31 06:16:04;;;;;;;69.63;47.10;;;10.90;93.10;;;;;;5052867;28;20470;-70
2022/03/31 06:18:30;;;;;;;72.28;48.58;;;11.00;93.10;;;;;;5053271;28;20048;-71
2022/03/31 06:20:57;;;;;;;64.85;47.05;;;11.00;92.90;;;;;;5052845;28;20025;-70
2022/03/31 06:23:23;;;;;;;70.75;48.72;;;10.90;92.50;;;;;;5053448;28;20037;-70
2022/03/31 06:25:50;;;;;;;70.72;49.05;;;10.90;92.90;;;;;;5052684;28;20041;-70
2022/03/31 06:28:16;;;;;;;70.03;48.92;;;10.90;92.80;;;;;;5052947;28;20094;-70
2022/03/31 06:30:42;;;;;;;73.22;49.55;;;10.90;93.10;;;;;;5051303;28;20025;-70
2022/03/31 06:33:26;;;;;;;73.22;46.90;;;10.90;92.70;;;;;;5051862;28;20234;-69
2022/03/31 06:35:52;;;;;;;69.68;48.78;;;10.90;92.70;;;;;;5052400;28;20035;-70
2022/03/31 06:38:17;;;;;;;66.63;47.50;;;10.90;92.80;;;;;;5052813;28;20107;-70
2022/03/31 06:41:06;;;;;;;68.85;48.72;;;10.90;93.00;;;;;;5052325;28;20021;-70
2022/03/31 06:43:29;;;;;;;69.78;46.85;;;10.90;92.90;;;;;;5052975;28;20033;-70
2022/03/31 06:45:54;;;;;;;71.60;48.83;;;10.90;92.80;;;;;;5052167;28;20462;-70
2022/03/31 06:48:20;;;;;;;70.18;48.80;;;10.90;92.50;;;;;;5052314;28;20028;-70
2022/03/31 06:50:46;;;;;;;69.40;48.72;;;11.00;92.70;;;;;;5052005;28;20104;-70
2022/03/31 06:53:11;;;;;;;69.28;47.85;;;10.90;92.50;;;;;;5052666;28;20025;-69
2022/03/31 06:55:37;;;;;;;71.70;48.90;;;10.90;92.90;;;;;;5052414;28;20052;-71
2022/03/31 06:58:03;;;;;;;69.25;49.53;;;10.90;93.40;;;;;;5051772;28;20411;-70
2022/03/31 07:00:29;;;;;;;70.03;49.85;;;10.80;93.40;;;;;;5052010;28;20494;-71
2022/03/31 07:02:55;;;;;;;70.90;48.10;;;10.80;93.80;;;;;;5052124;28;20075;-69
2022/03/31 07:05:21;;;;;;;70.40;49.90;;;10.80;94.50;;;;;;5052475;28;20116;-69
2022/03/31 07:07:47;;;;;;;67.55;48.35;;;10.80;94.60;;;;;;5051235;28;20029;-69
2022/03/31 07:10:13;;;;;;;69.55;49.40;;;10.80;94.70;;;;;;5052403;28;20032;-70
2022/03/31 07:12:39;;;;;;;72.57;49.38;;;10.80;94.90;;;;;;5052309;28;20028;-70
2022/03/31 07:15:06;;;;;;;65.70;49.22;;;10.80;95.00;;;;;;5051613;28;20025;-69
2022/03/31 07:17:31;;;;;;;70.78;50.03;;;10.70;94.90;;;;;;5052609;28;20499;-70
2022/03/31 07:20:16;;;;;;;70.05;48.38;;;10.80;95.60;;;;;;5051584;28;20111;-69
2022/03/31 07:22:50;;;;;;;68.88;49.05;;;10.70;96.00;;;;;;5051473;28;20481;-73
2022/03/31 07:25:16;;;;;;;65.28;47.22;;;10.70;96.20;;;;;;5052455;28;20033;-70
2022/03/31 07:27:44;;;;;;;65.63;47.78;;;10.70;95.90;;;;;;5034119;28;20040;-75
2022/03/31 07:30:11;;;;;;;63.75;47.50;;;10.70;95.90;;;;;;5032205;28;20021;-70
2022/03/31 07:32:46;;;;;;;58.58;45.38;;;10.70;95.80;;;;;;5032246;28;20041;-70
2022/03/31 07:35:12;;;;;;;54.63;43.15;;;10.60;96.00;;;;;;5032192;28;20025;-70
2022/03/31 07:37:37;;;;;;;62.08;46.00;;;10.50;96.10;;;;;;5032262;28;20107;-70
2022/03/31 07:40:03;;;;;;;56.85;42.60;;;10.50;96.50;;;;;;5031458;28;20372;-71
2022/03/31 07:42:29;;;;;;;53.08;41.72;;;10.50;96.50;;;;;;5031861;28;20338;-70
2022/03/31 07:44:55;;;;;;;61.05;42.80;;;10.50;97.00;;;;;;5031359;28;20022;-70
2022/03/31 07:47:20;;;;;;;58.72;42.90;;;10.40;97.50;;;;;;5031740;28;20079;-69
2022/03/31 07:49:49;;;;;;;53.42;40.05;;;10.40;97.60;;;;;;5031477;28;20033;-69
2022/03/31 07:52:15;;;;;;;54.28;40.05;;;10.40;97.40;;;;;;5032142;28;20029;-70
2022/03/31 07:54:41;;;;;;;55.55;42.63;;;10.40;97.40;;;;;;5031552;28;20083;-69
2022/03/31 07:57:06;;;;;;;54.63;41.47;;;10.40;97.50;;;;;;5031701;28;20454;-70
2022/03/31 07:59:33;;;;;;;54.63;40.10;;;10.40;97.80;;;;;;5031917;28;20462;-70
2022/03/31 08:02:00;;;;;;;54.05;42.83;;;10.40;98.30;;;;;;5031204;28;20074;-70
2022/03/31 08:04:27;;;;;;;48.72;38.15;;;10.40;98.30;;;;;;5031880;28;20033;-70
2022/03/31 08:06:53;;;;;;;49.28;39.15;;;10.40;98.50;;;;;;5031138;28;20389;-71
2022/03/31 08:09:21;;;;;;;50.10;37.88;;;10.30;98.40;;;;;;5031804;28;20025;-70
2022/03/31 08:11:49;;;;;;;56.67;40.92;;;10.30;99.00;;;;;;5031148;28;20034;-70
2022/03/31 08:14:16;;;;;;;56.88;39.90;;;10.30;99.30;;;;;;5031620;28;20079;-70
2022/03/31 08:16:46;;;;;;;54.97;41.95;;;10.20;99.60;;;;;;5036230;28;20024;-71
2022/03/31 08:19:12;;;;;;;56.30;42.15;;;10.20;99.90;;;;;;5051881;28;20025;-69
2022/03/31 08:21:38;;;;;;;58.58;43.90;;;10.20;99.90;;;;;;5055568;28;20108;-70
2022/03/31 08:24:04;;;;;;;56.88;43.15;;;10.30;99.90;;;;;;5055051;28;20103;-70
2022/03/31 08:26:30;;;;;;;50.95;40.63;;;10.20;99.90;;;;;;5055680;28;20033;-70
2022/03/31 08:28:55;;;;;;;51.05;37.90;;;10.20;99.90;;;;;;5054978;28;20024;-70
2022/03/31 08:31:21;;;;;;;49.70;38.45;;;10.20;99.90;;;;;;5055472;28;20057;-70
2022/03/31 08:33:47;;;;;;;55.45;39.28;;;10.30;99.90;;;;;;5055745;28;20017;-77
2022/03/31 08:36:12;;;;;;;50.78;37.53;;;10.30;99.90;;;;;;5055227;28;20036;-70
2022/03/31 08:38:56;;;;;;;51.70;38.15;;;10.20;99.90;;;;;;5055413;28;20108;-69
2022/03/31 08:41:25;;;;;;;52.38;40.00;;;10.20;99.90;;;;;;5055148;28;20389;-70
2022/03/31 08:43:51;;;;;;;48.20;36.58;;;10.30;99.90;;;;;;5054777;28;20029;-70
2022/03/31 08:46:18;;;;;;;48.28;36.60;;;10.20;99.90;;;;;;5055210;28;20029;-69
2022/03/31 08:48:44;;;;;;;50.22;37.70;;;10.20;99.90;;;;;;5054999;28;20069;-70
2022/03/31 08:51:10;;;;;;;52.35;38.47;;;10.20;99.90;;;;;;5054486;28;20024;-70
2022/03/31 08:53:36;;;;;;;53.03;39.03;;;10.20;99.90;;;;;;5054005;28;20531;-70
2022/03/31 08:56:03;;;;;;;58.38;39.35;;;10.20;99.90;;;;;;5054044;28;20053;-69
2022/03/31 08:58:28;;;;;;;54.47;40.03;;;10.20;99.90;;;;;;5054953;28;20120;-70
2022/03/31 09:00:54;;;;;;;55.45;41.30;;;10.20;99.90;;;;;;5054156;28;20122;-70
2022/03/31 09:03:20;;;;;;;54.10;39.38;;;10.10;99.90;;;;;;5054483;28;20021;-70
2022/03/31 09:05:51;;;;;;;51.05;39.60;;;10.10;99.90;;;;;;5054824;28;20462;-69
2022/03/31 09:08:17;;;;;;;;;;;10.10;99.90;;;;;;5055273;28;20032;-69
2022/03/31 09:10:49;;;;;;;55.28;39.20;;;10.10;99.90;;;;;;5054833;28;19904;-70
2022/03/31 09:13:26;;;;;;;48.20;37.92;;;10.10;99.90;;;;;;5055011;28;20163;-69
2022/03/31 09:15:53;;;;;;;54.75;39.00;;;10.10;99.90;;;;;;5052726;28;20354;-71
2022/03/31 09:18:21;;;;;;;51.08;38.13;;;10.10;99.90;;;;;;5054872;28;20491;-70
2022/03/31 09:20:49;;;;;;;56.60;38.78;;;10.10;99.90;;;;;;5054597;28;20032;-71
2022/03/31 09:23:16;;;;;;;50.45;37.45;;;10.20;99.90;;;;;;5053913;28;20029;-70
2022/03/31 09:25:42;;;;;;;49.00;38.55;;;10.10;99.90;;;;;;5054240;28;20073;-70
2022/03/31 09:28:18;;;;;;;52.80;38.72;;;10.20;99.90;;;;;;5053813;28;20517;-71
2022/03/31 09:30:55;;;;;;;55.47;40.15;;;10.20;99.90;;;;;;5053703;28;20025;-69
2022/03/31 09:33:25;;;;;;;51.35;38.58;;;10.20;99.90;;;;;;5054166;28;20053;-70
2022/03/31 09:36:00;;;;;;;49.67;37.97;;;10.20;99.90;;;;;;5054225;28;20095;-70
2022/03/31 09:38:26;;;;;;;52.15;37.63;;;10.20;99.90;;;;;;5054167;28;20441;-70
2022/03/31 09:40:53;;;;;;;54.58;37.80;;;10.20;99.90;;;;;;5053278;28;20021;-73
2022/03/31 09:43:19;;;;;;;59.17;38.20;;;10.20;99.90;;;;;;5054290;28;20028;-69
2022/03/31 09:45:45;;;;;;;49.85;37.63;;;10.20;99.90;;;;;;5054156;28;20041;-70
2022/03/31 09:48:21;;;;;;;52.92;38.50;;;10.20;99.90;;;;;;5053289;28;20528;-70
2022/03/31 09:50:48;;;;;;;50.80;37.42;;;10.20;99.90;;;;;;5053772;28;20095;-70
2022/03/31 09:53:15;;;;;;;51.75;37.03;;;10.20;99.90;;;;;;5053226;28;20060;-70
2022/03/31 09:55:44;;;;;;;53.25;36.95;;;10.30;99.90;;;;;;5053371;28;20057;-70
2022/03/31 09:58:17;;;;;;;52.10;36.28;;;10.30;99.90;;;;;;5053229;28;20052;-69
2022/03/31 10:00:43;;;;;;;50.80;37.08;;;10.30;99.90;;;;;;5053905;28;20029;-70
2022/03/31 10:03:13;;;;;;;46.63;35.50;;;10.20;99.90;;;;;;5053085;28;20032;-70
2022/03/31 10:05:42;;;;;;;47.10;34.00;;;10.30;99.90;;;;;;5054055;28;20439;-69
2022/03/31 10:08:10;;;;;;;45.53;35.75;;;10.20;99.90;;;;;;5053024;28;20060;-70
2022/03/31 10:10:37;;;;;;;43.13;34.00;;;10.30;99.90;;;;;;5053519;28;20078;-70
2022/03/31 10:13:21;;;;;;;44.88;32.53;;;10.20;99.90;;;;;;5052883;28;20029;-71
2022/03/31 10:15:49;;;;;;;47.25;33.22;;;10.20;99.90;;;;;;5053571;28;20033;-70
2022/03/31 10:18:15;;;;;;;40.67;30.85;;;10.20;99.90;;;;;;5053052;28;20390;-68
2022/03/31 10:20:57;;;;;;;42.75;32.00;;;10.20;99.90;;;;;;5053352;28;20025;-69
2022/03/31 10:26:08;;;;;;;46.58;32.45;;;10.20;99.90;;;;;;5052425;28;20082;-70
2022/03/31 10:28:33;;;;;;;46.60;32.08;;;10.20;99.90;;;;;;5053193;28;20013;-70
2022/03/31 10:31:02;;;;;;;48.17;33.67;;;10.20;99.90;;;;;;5052592;28;20032;-70
2022/03/31 10:33:44;;;;;;;40.78;29.92;;;10.20;99.90;;;;;;5053116;28;20024;-70
2022/03/31 10:36:15;;;;;;;39.60;30.08;;;10.20;99.90;;;;;;5052460;28;20028;-70
2022/03/31 10:38:59;;;;;;;37.88;29.67;;;10.20;99.90;;;;;;5053033;28;20026;-70
2022/03/31 10:41:33;;;;;;;38.67;29.15;;;10.20;99.90;;;;;;5052587;28;20017;-70
2022/03/31 10:44:01;;;;;;;37.75;29.48;;;10.20;99.90;;;;;;5052005;28;20025;-70
2022/03/31 10:46:28;;;;;;;41.42;29.48;;;10.30;99.90;;;;;;5052761;28;20041;-70
2022/03/31 10:48:55;;;;;;;43.42;31.33;;;10.30;99.90;;;;;;5052706;28;20029;-69
2022/03/31 10:51:35;;;;;;;40.03;30.98;;;10.30;99.90;;;;;;5052479;28;20029;-69
2022/03/31 10:54:02;;;;;;;38.28;30.48;;;10.40;99.90;;;;;;5052001;28;20025;-70
2022/03/31 10:56:29;;;;;;;38.58;29.58;;;10.40;99.90;;;;;;5052961;28;20140;-70
2022/03/31 10:59:01;;;;;;;39.45;29.13;;;10.40;99.90;;;;;;5052751;28;20040;-69
2022/03/31 11:01:29;;;;;;;41.38;29.15;;;10.40;99.90;;;;;;5052687;28;20025;-69
2022/03/31 11:04:10;;;;;;;39.63;28.25;;;10.40;99.90;;;;;;5052545;28;20036;-70
2022/03/31 11:06:57;;;;;;;37.20;26.20;;;10.40;99.90;;;;;;5052764;28;20381;-69
2022/03/31 11:09:27;;;;;;;36.95;27.20;;;10.40;99.90;;;;;;5051568;28;20079;-70
2022/03/31 11:11:57;;;;;;;37.55;27.30;;;10.40;99.90;;;;;;5052553;28;20029;-70
2022/03/31 11:14:23;;;;;;;34.63;27.35;;;10.40;99.90;;;;;;5052032;28;20040;-70
2022/03/31 11:16:49;;;;;;;33.88;27.02;;;10.50;99.90;;;;;;5052798;28;20041;-70
2022/03/31 11:19:19;;;;;;;37.08;26.40;;;10.50;99.90;;;;;;5051569;28;20071;-70
2022/03/31 11:21:45;;;;;;;35.20;27.08;;;10.50;99.90;;;;;;5052343;28;20017;-70
2022/03/31 11:24:30;;;;;;;34.10;26.33;;;10.50;99.90;;;;;;5051938;28;20087;-70
2022/03/31 11:26:55;;;;;;;33.67;26.50;;;10.50;99.90;;;;;;5052312;28;20033;-70
2022/03/31 11:29:24;;;;;;;36.05;26.73;;;10.50;99.90;;;;;;5051715;28;20025;-70
2022/03/31 11:31:52;;;;;;;34.00;26.42;;;10.60;99.90;;;;;;5052110;28;20132;-70
2022/03/31 11:34:21;;;;;;;34.95;24.38;;;10.50;99.90;;;;;;5051599;28;20017;-70
2022/03/31 11:36:47;;;;;;;34.30;23.48;;;10.50;99.90;;;;;;5051765;28;20033;-70
2022/03/31 11:39:13;;;;;;;34.10;25.17;;;10.40;99.90;;;;;;5051559;28;20021;-70
2022/03/31 11:41:42;;;;;;;28.60;22.88;;;10.40;99.90;;;;;;5051933;28;20029;-71
2022/03/31 11:44:08;;;;;;;30.95;24.48;;;10.40;99.90;;;;;;5051471;28;20052;-71
2022/03/31 11:46:39;;;;;;;33.90;25.13;;;10.30;99.90;;;;;;5050915;28;20377;-71
2022/03/31 11:49:16;;;;;;;31.33;25.75;;;10.30;99.90;;;;;;5051374;28;20021;-70
2022/03/31 11:52:06;;;;;;;31.95;25.50;;;10.40;99.90;;;;;;5051664;28;20036;-70
2022/03/31 11:54:41;;;;;;;29.95;23.83;;;10.40;99.90;;;;;;5052042;28;20484;-70
2022/03/31 11:57:09;;;;;;;36.05;24.38;;;10.30;99.90;;;;;;5051420;28;20075;-70
2022/03/31 11:59:35;;;;;;;30.30;23.30;;;10.30;99.90;;;;;;5052175;28;20017;-71
2022/03/31 12:02:11;;;;;;;29.80;24.33;;;10.30;99.90;;;;;;5051940;28;20025;-70
2022/03/31 12:04:38;;;;;;;30.98;24.05;;;10.20;99.90;;;;;;5052315;28;20365;-70
2022/03/31 12:07:04;;;;;;;30.02;24.02;;;10.20;99.90;;;;;;5050962;28;20029;-71
2022/03/31 12:09:30;;;;;;;33.05;25.02;;;10.20;99.90;;;;;;5051849;28;20045;-70
2022/03/31 12:11:57;;;;;;;32.72;24.77;;;10.10;99.90;;;;;;5051728;28;20029;-70
2022/03/31 12:14:28;;;;;;;32.83;24.55;;;10.10;99.90;;;;;;5051088;28;20437;-70
2022/03/31 12:16:55;;;;;;;29.83;23.88;;;10.10;99.90;;;;;;5051619;28;20033;-70
2022/03/31 12:19:22;;;;;;;30.85;23.52;;;10.10;99.90;;;;;;5050818;28;20438;-70
2022/03/31 12:21:58;;;;;;;30.80;24.92;;;10.10;99.90;;;;;;5050907;28;20029;-70
2022/03/31 12:24:24;;;;;;;30.85;24.90;;;10.10;99.90;;;;;;5051067;28;20033;-70
2022/03/31 12:26:54;;;;;;;31.48;26.23;;;10.10;99.90;;;;;;5051254;28;20159;-70
2022/03/31 12:29:21;;;;;;;27.98;24.25;;;10.10;99.90;;;;;;5050994;28;20028;-69
2022/03/31 12:31:48;;;;;;;29.80;25.80;;;10.10;99.90;;;;;;5051636;28;20504;-70
2022/03/31 12:34:14;;;;;;;34.13;24.92;;;10.10;99.90;;;;;;5051305;28;20032;-70
2022/03/31 12:36:42;;;;;;;30.42;25.80;;;10.10;99.90;;;;;;5051515;28;20033;-70
2022/03/31 12:39:08;;;;;;;31.90;24.45;;;10.10;99.90;;;;;;5051157;28;20376;-70